Latest Coastal Weather Observations for Mornington Island Airport

IDQ60701

Issued at 11:01 am EST Sunday 19 April 2015 (issued every 10 minutes, with the page automatically refreshed every 10 minutes)

About coastal observations | Map of coastal stations | Coastal observations for QLD | Marine services | Other Formats
Station Details ID: 029182 Name: MORNINGTON ISLAND AIRPORT Lat: -16.66 Lon: 139.17 Height: 9.0 m
Data from the previous 72 hours. | See also: Recent months at Mornington Island Airport
Date/Time
EST
Temp

°C
Wind Pressure Rain
since 9am
mm
Weather Cloud Vis
km
Sea
Height
m
Swell
Dir
 
Speed
knots
Gust
knots
hPa Trend Height
m
Period
s
Dir
19/11:00am 28.4 SE 15 30 1015.6 - 0.0 - - - - - - -
19/10:31am 28.3 SE 15 25 1015.7 - 0.0 - - - - - - -
19/10:30am 28.4 SE 15 24 1015.6 - 0.0 - - - - - - -
19/10:00am 28.4 SE 16 26 1015.8 - 0.0 - - - - - - -
19/09:54am 28.6 SE 15 26 1015.6 - 0.0 - - - - - - -
19/09:30am 27.7 SE 13 23 1015.4 - 0.0 - - - - - - -
19/09:00am 28.4 SE 15 27 1015.2 - 0.0 - - - - - - -
19/08:30am 28.2 SE 15 25 1014.9 - 0.0 - - - - - - -
19/08:17am 28.0 SE 15 27 1014.7 - 0.0 - - - - - - -
19/08:00am 28.2 SE 14 21 1014.1 - 0.0 - - - - - - -
19/07:30am 28.2 SE 14 26 1013.5 - 0.0 - - - - - - -
19/07:07am 28.3 SE 15 26 1013.3 - 0.0 - - - - - - -
19/07:00am 28.3 SE 14 23 1013.3 - 0.0 - - - - - - -
19/06:30am 28.0 SSE 11 19 1012.8 - 0.0 - - - - - - -
19/06:00am 27.9 SSE 13 27 1012.4 - 0.0 - - - - - - -
19/05:30am 28.0 SSE 11 20 1012.1 - 0.0 - - - - - - -
19/05:00am 27.9 SSE 10 16 1011.9 - 0.0 - - - - - - -
19/04:30am 27.3 SSE 10 17 1011.7 - 0.0 - - - - - - -
19/04:00am 26.9 S 6 11 1011.2 - 0.0 - - - - - - -
19/03:30am 26.8 SSW 5 9 1011.0 - 0.0 - - - - - - -
19/03:00am 27.2 SW 9 15 1011.1 - 0.0 - - - - - - -
19/02:30am 27.2 SW 5 8 1011.2 - 0.0 - - - - - - -
19/02:00am 27.7 WSW 5 8 1011.6 - 0.0 - - - - - - -
19/01:30am 26.9 SW 5 6 1012.0 - 0.0 - - - - - - -
19/01:00am 26.3 SW 4 5 1012.2 - 0.0 - - - - - - -
19/12:30am 25.1 WSW 3 5 1012.4 - 0.0 - - - - - - -
19/12:00am 25.1 CALM 0 0 1012.5 - 0.0 - - - - - - -
 
Date/Time
EST
Temp

°C
Wind Pressure Rain
since 9am
mm
Weather Cloud Vis
km
Sea
Height
m
Swell
Dir
 
Speed
knots
Gust
knots
hPa Trend Height
m
Period
s
Dir
18/11:30pm 25.0 W 3 4 1012.5 - 0.0 - - - - - - -
18/11:00pm 25.5 N 3 4 1012.8 - 0.0 - - - - - - -
18/10:30pm 24.9 N 2 3 1012.8 - 0.0 - - - - - - -
18/10:00pm 25.1 NNE 3 5 1012.7 - 0.0 - - - - - - -
18/09:30pm 25.2 NE 5 5 1012.7 - 0.0 - - - - - - -
18/09:00pm 25.5 NE 4 5 1012.4 - 0.0 - - - - - - -
18/08:30pm 26.0 NE 4 5 1012.4 - 0.0 - - - - - - -
18/08:00pm 26.3 NE 4 5 1012.0 - 0.0 - - - - - - -
18/07:30pm 27.1 ENE 6 7 1011.8 - 0.0 - - - - - - -
18/07:00pm 28.0 E 5 6 1011.5 - 0.0 - - - - - - -
18/06:30pm 29.2 ESE 6 7 1011.3 - 0.0 - - - - - - -
18/06:00pm 30.4 ESE 6 9 1011.2 - 0.0 - - - - - - -
18/05:30pm 30.9 SE 5 7 1011.0 - 0.0 - - - - - - -
18/05:00pm 30.9 SE 7 9 1010.8 - 0.0 - - - - - - -
18/04:30pm 31.1 SSE 6 11 1010.9 - 0.0 - - - - - - -
18/04:00pm 30.8 SSE 7 10 1011.0 - 0.0 - - - - - - -
18/03:30pm 30.8 SSE 8 12 1011.0 - 0.0 - - - - - - -
18/03:00pm 30.8 SSE 8 12 1011.4 - 0.0 - - - - - - -
18/02:30pm 31.4 SSE 8 12 1011.7 - 0.0 - - - - - - -
18/02:00pm 31.0 SSE 8 13 1012.1 - 0.0 - - - - - - -
18/01:30pm 30.8 SSE 9 13 1012.5 - 0.0 - - - - - - -
18/01:00pm 31.3 SSE 6 9 1012.8 - 0.0 - - - - - - -
18/12:30pm 30.9 SW 6 9 1013.4 - 0.0 - - - - - - -
18/12:00pm 30.7 NW 8 11 1013.8 - 0.0 - - - - - - -
18/11:30am 32.2 SSE 5 8 1014.1 - 0.0 - - - - - - -
18/11:00am 31.6 ENE 5 10 1014.3 - 0.0 - - - - - - -
18/10:30am 31.7 NNE 6 9 1014.6 - 0.0 - - - - - - -
18/10:00am 30.6 NW 4 7 1014.9 - 0.0 - - - - - - -
18/09:30am 30.2 NNE 4 5 1014.6 - 0.0 - - - - - - -
18/09:00am 29.7 NE 3 5 1014.5 - 0.0 - - - - - - -
18/08:30am 29.5 CALM 0 0 1014.1 - 0.0 - - - - - - -
18/08:00am 27.3 CALM 0 0 1013.7 - 0.0 - - - - - - -
18/07:30am 24.8 CALM 0 0 1013.1 - 0.0 - - - - - - -
18/07:00am 23.8 CALM 0 0 1012.6 - 0.0 - - - - - - -
18/06:30am 23.7 NW 3 4 1012.1 - 0.0 - - - - - - -
18/06:00am 23.8 CALM 0 0 1011.7 - 0.0 - - - - - - -
18/05:30am 24.1 N 4 4 1011.5 - 0.0 - - - - - - -
18/05:00am 23.6 N 2 3 1011.3 - 0.0 - - - - - - -
18/04:30am 24.2 N 3 4 1011.2 - 0.0 - - - - - - -
18/04:00am 24.0 NNE 5 6 1011.1 - 0.0 - - - - - - -
18/03:30am 23.8 NNE 3 4 1011.2 - 0.0 - - - - - - -
18/03:00am 24.0 N 3 4 1011.3 - 0.0 - - - - - - -
18/02:30am 23.9 N 3 3 1011.6 - 0.0 - - - - - - -
18/02:00am 24.3 N 4 5 1011.9 - 0.0 - - - - - - -
18/01:30am 24.2 N 5 5 1012.1 - 0.0 - - - - - - -
18/01:00am 24.5 N 4 5 1012.3 - 0.0 - - - - - - -
18/12:30am 24.6 CALM 0 0 1012.7 - 0.0 - - - - - - -
18/12:00am 24.7 NNW 2 3 1012.9 - 0.0 - - - - - - -
 
Date/Time
EST
Temp

°C
Wind Pressure Rain
since 9am
mm
Weather Cloud Vis
km
Sea
Height
m
Swell
Dir
 
Speed
knots
Gust
knots
hPa Trend Height
m
Period
s
Dir
17/11:30pm 24.6 CALM 0 0 1012.9 - 0.0 - - - - - - -
17/11:00pm 24.8 CALM 0 0 1013.1 - 0.0 - - - - - - -
17/10:30pm 25.2 CALM 0 0 1013.3 - 0.0 - - - - - - -
17/10:00pm 25.2 NNE 3 3 1013.4 - 0.0 - - - - - - -
17/09:30pm 25.1 NNE 4 5 1013.2 - 0.0 - - - - - - -
17/09:00pm 25.6 E 1 4 1013.0 - 0.0 - - - - - - -
17/08:30pm 25.7 SSE 3 3 1012.8 - 0.0 - - - - - - -
17/08:00pm 26.1 SSE 3 4 1012.5 - 0.0 - - - - - - -
17/07:30pm 26.6 SSE 3 5 1012.2 - 0.0 - - - - - - -
17/07:00pm 27.2 S 3 4 1012.0 - 0.0 - - - - - - -
17/06:30pm 28.4 WSW 4 6 1011.9 - 0.0 - - - - - - -
17/06:00pm 29.4 W 5 7 1011.5 - 0.0 - - - - - - -
17/05:30pm 30.2 WSW 5 7 1011.2 - 0.0 - - - - - - -
17/05:00pm 31.0 SE 5 8 1011.0 - 0.0 - - - - - - -
17/04:30pm 31.3 SE 6 8 1010.9 - 0.0 - - - - - - -
17/04:00pm 31.6 ESE 8 11 1011.0 - 0.0 - - - - - - -
17/03:30pm 32.1 ESE 7 10 1010.9 - 0.0 - - - - - - -
17/03:00pm 31.9 ESE 8 13 1011.1 - 0.0 - - - - - - -
17/02:30pm 31.5 ESE 10 15 1011.5 - 0.0 - - - - - - -
17/02:00pm 31.8 E 11 14 1011.9 - 0.0 - - - - - - -
17/01:30pm 31.6 ESE 10 16 1012.2 - 0.0 - - - - - - -
17/01:00pm 31.3 ESE 10 15 1012.5 - 0.0 - - - - - - -
17/12:30pm 31.6 E 13 17 1013.1 - 0.0 - - - - - - -
17/12:00pm 31.8 E 13 18 1013.6 - 0.0 - - - - - - -
17/11:30am 31.7 E 12 17 1014.0 - 0.0 - - - - - - -
17/11:00am 30.9 E 13 16 1014.5 - 0.0 - - - - - - -
17/10:30am 31.0 ENE 13 17 1014.8 - 0.0 - - - - - - -
17/10:00am 30.4 ENE 13 18 1014.9 - 0.0 - - - - - - -
17/09:30am 30.0 ENE 13 16 1014.7 - 0.0 - - - - - - -
17/09:00am 29.0 ENE 9 12 1014.5 - 0.0 - - - - - - -
17/08:30am 27.7 ENE 8 11 1014.4 - 0.0 - - - - - - -
17/08:00am 26.7 E 5 7 1014.2 - 0.0 - - - - - - -
17/07:30am 24.9 E 4 5 1014.0 - 0.0 - - - - - - -
17/07:00am 23.7 E 3 4 1013.9 - 0.0 - - - - - - -
17/06:30am 23.9 E 4 5 1013.7 - 0.0 - - - - - - -
17/06:00am 23.6 E 4 5 1013.4 - 0.0 - - - - - - -
17/05:30am 23.8 E 3 4 1013.1 - 0.0 - - - - - - -
17/05:00am 23.7 ESE 4 5 1013.0 - 0.0 - - - - - - -
17/04:30am 24.2 CALM 0 0 1012.8 - 0.0 - - - - - - -
17/04:00am 24.0 CALM 0 0 1012.5 - 0.0 - - - - - - -
17/03:30am 24.3 CALM 0 0 1012.5 - 0.0 - - - - - - -
17/03:00am 25.1 WSW 3 4 1012.7 - 0.0 - - - - - - -
17/02:30am 26.4 WSW 5 6 1013.1 - 0.0 - - - - - - -
17/02:00am 25.7 W 4 6 1013.5 - 0.0 - - - - - - -
17/01:30am 24.4 CALM 0 0 1014.0 - 0.0 - - - - - - -
17/01:00am 24.3 CALM 0 0 1014.5 - 0.0 - - - - - - -
17/12:30am 24.6 N 3 4 1015.0 - 0.0 - - - - - - -
17/12:00am 24.4 N 3 4 1015.3 - 0.0 - - - - - - -
 
Date/Time
EST
Temp

°C
Wind Pressure Rain
since 9am
mm
Weather Cloud Vis
km
Sea
Height
m
Swell
Dir
 
Speed
knots
Gust
knots
hPa Trend Height
m
Period
s
Dir
16/11:30pm 24.4 N 2 3 1015.5 - 0.0 - - - - - - -
16/11:00pm 24.5 NNE 5 5 1015.6 - 0.0 - - - - - - -
16/10:30pm 24.7 N 4 6 1015.7 - 0.0 - - - - - - -
16/10:00pm 25.0 NNE 2 4 1015.5 - 0.0 - - - - - - -
16/09:30pm 25.3 NNE 4 5 1015.3 - 0.0 - - - - - - -
16/09:00pm 25.5 CALM 0 0 1015.2 - 0.0 - - - - - - -
16/08:30pm 25.7 NNE 3 4 1015.1 - 0.0 - - - - - - -
16/08:00pm 25.8 N 3 5 1014.8 - 0.0 - - - - - - -
16/07:30pm 26.1 NE 2 4 1014.4 - 0.0 - - - - - - -
16/07:00pm 27.0 CALM 0 0 1014.1 - 0.0 - - - - - - -
16/06:30pm 28.4 NE 4 4 1013.8 - 0.0 - - - - - - -
16/06:00pm 29.6 CALM 0 4 1013.8 - 0.0 - - - - - - -
16/05:30pm 30.0 SE 4 9 1013.8 - 0.0 - - - - - - -
16/05:00pm 29.9 SE 6 10 1013.7 - 0.0 - - - - - - -
16/04:30pm 29.8 SSE 8 13 1013.7 - 0.0 - - - - - - -
16/04:00pm 31.3 SE 7 10 1013.5 - 0.0 - - - - - - -
16/03:30pm 30.9 SE 8 12 1013.8 - 0.0 - - - - - - -
16/03:00pm 31.3 E 7 13 1013.9 - 0.0 - - - - - - -
16/02:30pm 31.4 SE 8 12 1014.1 - 0.0 - - - - - - -
16/02:00pm 30.9 ESE 9 14 1014.4 - 0.0 - - - - - - -
16/01:30pm 30.7 ESE 9 15 1014.8 - 0.0 - - - - - - -
16/01:00pm 30.5 ESE 9 13 1015.1 - 0.0 - - - - - - -
16/12:30pm 30.4 ESE 10 16 1015.6 - 0.0 - - - - - - -
16/12:00pm 31.5 E 12 18 1016.1 - 0.0 - - - - - - -
16/11:30am 30.9 E 14 20 1016.4 - 0.0 - - - - - - -

Other Formats:

Comma delimited format used in spreadsheet applications
http://www.bom.gov.au/fwo/IDQ60701/IDQ60701.94254.axf

JavaScript Object Notation format (JSON) in row-major order
http://www.bom.gov.au/fwo/IDQ60701/IDQ60701.94254.json